createdAt,value
2017-10-19T00:00:20.333Z,40.15
2017-10-19T00:01:24.775Z,35.10
2017-10-19T00:02:29.433Z,25.98
2017-10-19T00:03:33.845Z,28.15
2017-10-19T00:04:38.718Z,28.75
2017-10-19T00:05:43.158Z,23.23
2017-10-19T00:06:47.544Z,26.00
2017-10-19T00:07:51.996Z,26.70
2017-10-19T00:08:56.735Z,25.23
2017-10-19T00:10:01.209Z,24.42
2017-10-19T00:11:05.580Z,27.55
2017-10-19T00:12:10.766Z,30.25
2017-10-19T00:13:15.125Z,26.87
2017-10-19T00:14:19.474Z,31.25
2017-10-19T00:15:24.344Z,24.85
2017-10-19T00:16:29.506Z,32.70
2017-10-19T00:17:33.931Z,26.80
2017-10-19T00:18:38.305Z,24.55
2017-10-19T00:19:42.716Z,30.50
2017-10-19T00:20:47.212Z,33.33
2017-10-19T00:21:52.706Z,29.87
2017-10-19T00:22:57.154Z,30.65
2017-10-19T00:24:02.288Z,26.98
2017-10-19T00:25:06.669Z,25.65
2017-10-19T00:26:11.020Z,26.48
2017-10-19T00:27:15.358Z,23.42
2017-10-19T00:28:19.740Z,22.92
2017-10-19T00:29:24.127Z,26.60
2017-10-19T00:30:28.501Z,26.70
2017-10-19T00:31:32.938Z,23.70
2017-10-19T00:32:38.169Z,26.15
2017-10-19T00:33:43.317Z,30.20
2017-10-19T00:34:47.728Z,25.52
2017-10-19T00:35:52.088Z,25.70
2017-10-19T00:36:56.526Z,26.10
2017-10-19T00:38:01.706Z,27.30
2017-10-19T00:39:06.428Z,22.48
2017-10-19T00:40:10.804Z,26.33
2017-10-19T00:41:15.185Z,25.73
2017-10-19T00:42:20.353Z,27.85
2017-10-19T00:43:25.287Z,60.20
2017-10-19T00:44:29.806Z,30.70
2017-10-19T00:45:34.266Z,25.45
2017-10-19T00:46:38.737Z,28.23
2017-10-19T00:47:43.091Z,32.47
2017-10-19T00:48:55.421Z,24.60
2017-10-19T00:49:59.836Z,27.37
2017-10-19T00:51:04.549Z,40.20
2017-10-19T00:52:09.298Z,34.85
2017-10-19T00:53:13.634Z,30.23
2017-10-19T00:54:18.084Z,27.20
2017-10-19T00:55:22.595Z,27.33
2017-10-19T00:56:27.077Z,23.40
2017-10-19T00:57:31.429Z,30.98
2017-10-19T00:58:35.799Z,30.40
2017-10-19T00:59:40.477Z,30.92
2017-10-19T01:00:45.979Z,28.27
2017-10-19T01:01:51.012Z,29.05
2017-10-19T01:02:56.040Z,28.00
2017-10-19T01:04:00.419Z,26.45
2017-10-19T01:05:05.238Z,30.67
2017-10-19T01:06:09.702Z,29.00
2017-10-19T01:07:14.819Z,29.25
2017-10-19T01:08:19.181Z,34.63
2017-10-19T01:09:23.501Z,28.77
2017-10-19T01:10:28.136Z,31.02
2017-10-19T01:11:32.475Z,31.98
2017-10-19T01:12:37.581Z,29.58
2017-10-19T01:13:41.917Z,29.98
2017-10-19T01:14:47.017Z,31.95
2017-10-19T01:15:51.435Z,36.90
2017-10-19T01:16:56.536Z,35.55
2017-10-19T01:18:00.935Z,27.30
2017-10-19T01:19:05.302Z,35.70
2017-10-19T01:20:09.621Z,41.47
2017-10-19T01:21:14.099Z,35.83
2017-10-19T01:22:19.278Z,28.20
2017-10-19T01:23:23.639Z,28.92
2017-10-19T01:24:28.775Z,31.83
2017-10-19T01:25:34.380Z,36.90
2017-10-19T01:26:38.894Z,31.25
2017-10-19T01:27:43.368Z,33.55
2017-10-19T01:28:47.717Z,37.08
2017-10-19T01:29:52.890Z,39.58
2017-10-19T01:30:57.241Z,34.03
2017-10-19T01:32:02.474Z,36.65
2017-10-19T01:33:07.161Z,40.00
2017-10-19T01:34:11.630Z,40.78
2017-10-19T01:35:16.781Z,47.17
2017-10-19T01:36:21.240Z,45.10
2017-10-19T01:37:25.600Z,44.90
2017-10-19T01:38:29.965Z,39.97
2017-10-19T01:39:34.474Z,46.88
2017-10-19T01:40:39.184Z,46.85
2017-10-19T01:41:45.567Z,36.40
2017-10-19T01:42:52.307Z,40.25
2017-10-19T01:43:57.853Z,41.75
2017-10-19T01:45:05.059Z,37.63
2017-10-19T01:46:12.898Z,40.55
2017-10-19T01:47:23.078Z,45.55
2017-10-19T01:48:30.291Z,46.70
2017-10-19T01:49:44.373Z,47.92
2017-10-19T01:50:51.888Z,40.38
2017-10-19T01:51:58.546Z,43.70
2017-10-19T01:53:04.062Z,45.50
2017-10-19T01:54:10.457Z,39.70
2017-10-19T01:55:15.862Z,44.90
2017-10-19T01:56:25.149Z,48.17
2017-10-19T01:57:29.535Z,39.33
2017-10-19T01:58:34.172Z,37.03
2017-10-19T01:59:38.517Z,35.80
2017-10-19T02:00:45.110Z,50.67
2017-10-19T02:01:49.469Z,51.28
2017-10-19T02:02:54.586Z,47.78
2017-10-19T02:03:58.946Z,56.25
2017-10-19T02:05:03.339Z,41.67
2017-10-19T02:06:07.749Z,46.85
2017-10-19T02:07:12.547Z,42.78
2017-10-19T02:08:18.363Z,44.17
2017-10-19T02:09:23.705Z,44.83
2017-10-19T02:10:29.337Z,37.83
2017-10-19T02:11:34.226Z,39.08
2017-10-19T02:12:38.668Z,42.78
2017-10-19T02:13:43.032Z,37.95
2017-10-19T02:14:47.724Z,39.78
2017-10-19T02:15:52.901Z,39.22
2017-10-19T02:16:58.527Z,43.75
2017-10-19T02:18:03.363Z,32.75
2017-10-19T02:19:08.522Z,35.30
2017-10-19T02:20:13.051Z,37.88
2017-10-19T02:21:17.852Z,43.55
2017-10-19T02:22:23.152Z,38.72
2017-10-19T02:23:27.644Z,49.53
2017-10-19T02:24:32.301Z,42.78
2017-10-19T02:25:37.345Z,34.50
2017-10-19T02:26:42.840Z,37.55
2017-10-19T02:27:47.318Z,35.72
2017-10-19T02:28:51.848Z,48.22
2017-10-19T02:29:56.533Z,34.15
2017-10-19T02:31:01.486Z,39.15
2017-10-19T02:32:06.519Z,39.20
2017-10-19T02:33:11.520Z,36.83
2017-10-19T02:34:16.096Z,34.00
2017-10-19T02:35:22.399Z,35.80
2017-10-19T02:36:27.103Z,33.63
2017-10-19T02:37:32.191Z,36.88
2017-10-19T02:38:38.780Z,35.70
2017-10-19T02:39:43.892Z,32.33
2017-10-19T02:40:48.821Z,35.20
2017-10-19T02:41:53.973Z,35.10
2017-10-19T02:42:58.969Z,35.40
2017-10-19T02:44:05.363Z,29.90
2017-10-19T02:45:09.877Z,30.88
2017-10-19T02:46:14.366Z,30.55
2017-10-19T02:47:19.495Z,31.80
2017-10-19T02:48:24.434Z,31.40
2017-10-19T02:49:28.993Z,32.22
2017-10-19T02:50:34.307Z,39.42
2017-10-19T02:51:39.621Z,39.03
2017-10-19T02:52:44.096Z,30.30
2017-10-19T02:53:49.398Z,31.77
2017-10-19T02:54:54.638Z,34.92
2017-10-19T02:55:59.188Z,39.88
2017-10-19T02:57:03.862Z,32.90
2017-10-19T02:58:08.466Z,32.95
2017-10-19T02:59:13.990Z,31.67
2017-10-19T03:00:18.681Z,36.88
2017-10-19T03:01:23.035Z,53.55
2017-10-19T03:02:27.789Z,41.42
2017-10-19T03:03:32.294Z,33.60
2017-10-19T03:04:36.977Z,45.75
2017-10-19T03:05:41.327Z,37.15
2017-10-19T03:06:45.772Z,32.70
2017-10-19T03:07:51.600Z,31.25
2017-10-19T03:08:57.048Z,43.97
2017-10-19T03:10:02.286Z,29.87
2017-10-19T03:11:07.556Z,30.00
2017-10-19T03:12:12.226Z,30.90
2017-10-19T03:13:17.420Z,25.92
2017-10-19T03:14:21.957Z,39.55
2017-10-19T03:15:26.357Z,39.47
2017-10-19T03:16:31.054Z,35.22
2017-10-19T03:17:35.485Z,33.42
2017-10-19T03:18:40.169Z,28.27
2017-10-19T03:19:44.744Z,37.10
2017-10-19T03:20:49.494Z,30.23
2017-10-19T03:21:54.243Z,26.65
2017-10-19T03:22:58.596Z,37.50
2017-10-19T03:24:02.922Z,36.40
2017-10-19T03:25:07.288Z,35.42
2017-10-19T03:26:11.651Z,32.13
2017-10-19T03:27:16.038Z,33.65
2017-10-19T03:28:20.442Z,34.28
2017-10-19T03:29:24.795Z,30.75
2017-10-19T03:30:29.149Z,40.10
2017-10-19T03:31:34.282Z,33.25
2017-10-19T03:32:38.657Z,37.78
2017-10-19T03:33:43.002Z,43.33
2017-10-19T03:34:47.376Z,39.13
2017-10-19T03:35:52.574Z,34.17
2017-10-19T03:36:57.367Z,47.60
2017-10-19T03:38:02.165Z,35.58
2017-10-19T03:39:07.591Z,37.15
2017-10-19T03:40:12.740Z,33.45
2017-10-19T03:41:17.466Z,33.20
2017-10-19T03:42:21.872Z,39.80
2017-10-19T03:43:26.513Z,35.35
2017-10-19T03:44:30.875Z,43.70
2017-10-19T03:45:36.234Z,36.95
2017-10-19T03:46:40.687Z,34.67
2017-10-19T03:47:45.625Z,37.03
2017-10-19T03:48:51.068Z,38.90
2017-10-19T03:49:56.231Z,47.62
2017-10-19T03:51:02.374Z,37.97
2017-10-19T03:52:06.773Z,36.60
2017-10-19T03:53:11.188Z,48.47
2017-10-19T03:54:15.511Z,46.75
2017-10-19T03:55:20.277Z,41.08
2017-10-19T03:56:24.625Z,35.88
2017-10-19T03:57:29.002Z,37.47
2017-10-19T03:58:33.668Z,33.97
2017-10-19T03:59:38.431Z,33.88
2017-10-19T04:00:43.728Z,41.58
2017-10-19T04:01:48.126Z,44.60
2017-10-19T04:02:52.783Z,57.78
2017-10-19T04:03:57.230Z,39.08
2017-10-19T04:05:01.644Z,36.15
2017-10-19T04:06:06.090Z,41.10
2017-10-19T04:07:10.510Z,34.97
2017-10-19T04:08:14.846Z,58.80
2017-10-19T04:09:19.248Z,40.28
2017-10-19T04:10:24.376Z,40.03
2017-10-19T04:11:29.485Z,40.88
2017-10-19T04:12:34.382Z,36.25
2017-10-19T04:13:38.739Z,47.45
2017-10-19T04:14:43.853Z,45.55
2017-10-19T04:15:48.960Z,49.50
2017-10-19T04:16:53.911Z,46.70
2017-10-19T04:17:58.464Z,41.97
2017-10-19T04:19:02.823Z,47.33
2017-10-19T04:20:07.959Z,40.92
2017-10-19T04:21:12.414Z,46.58
2017-10-19T04:23:13.817Z,39.58
2017-10-19T04:24:18.988Z,39.63
2017-10-19T04:25:23.568Z,44.50
2017-10-19T04:26:27.964Z,39.60
2017-10-19T04:27:32.861Z,42.20
2017-10-19T04:28:37.932Z,54.78
2017-10-19T04:29:42.329Z,42.38
2017-10-19T04:30:46.819Z,50.95
2017-10-19T04:31:52.864Z,45.17
2017-10-19T04:32:58.385Z,36.00
2017-10-19T04:34:03.198Z,47.45
2017-10-19T04:35:07.587Z,50.67
2017-10-19T04:36:12.129Z,44.05
2017-10-19T04:37:16.653Z,42.90
2017-10-19T04:38:22.125Z,40.78
2017-10-19T04:39:26.637Z,47.78
2017-10-19T04:40:31.148Z,38.15
2017-10-19T04:41:35.734Z,37.38
2017-10-19T04:42:41.014Z,34.95
2017-10-19T04:43:45.429Z,33.72
2017-10-19T04:44:50.342Z,41.40
2017-10-19T04:45:54.742Z,37.05
2017-10-19T04:46:59.185Z,39.13
2017-10-19T04:48:03.660Z,32.17
2017-10-19T04:49:08.170Z,34.25
2017-10-19T04:50:13.062Z,35.20
2017-10-19T04:51:18.214Z,50.75
2017-10-19T04:52:22.647Z,35.00
2017-10-19T04:53:27.092Z,37.78
2017-10-19T04:54:32.297Z,38.25
2017-10-19T04:55:36.739Z,36.05
2017-10-19T04:56:41.921Z,33.38
2017-10-19T04:57:46.322Z,41.55
2017-10-19T04:58:50.741Z,48.90
2017-10-19T04:59:55.144Z,50.80
2017-10-19T05:01:00.184Z,43.75
2017-10-19T05:02:04.578Z,46.17
2017-10-19T05:03:09.630Z,37.33
2017-10-19T05:04:14.129Z,39.35
2017-10-19T05:05:18.551Z,47.13
2017-10-19T05:06:24.009Z,93.43
2017-10-19T05:07:31.055Z,182.10
2017-10-19T05:08:36.316Z,70.00
2017-10-19T05:09:42.126Z,48.22
2017-10-19T05:10:46.559Z,52.22
2017-10-19T05:11:51.688Z,51.78
2017-10-19T05:12:56.898Z,47.90
2017-10-19T05:14:01.410Z,48.97
2017-10-19T05:15:06.609Z,41.35
2017-10-19T05:16:11.072Z,47.50
2017-10-19T05:17:16.797Z,50.67
2017-10-19T05:18:21.991Z,57.28
2017-10-19T05:19:26.428Z,46.60
2017-10-19T05:20:32.366Z,48.83
2017-10-19T05:21:36.860Z,50.90
2017-10-19T05:22:41.301Z,47.08
2017-10-19T05:23:46.614Z,51.53
2017-10-19T05:24:50.997Z,51.53
2017-10-19T05:25:55.466Z,57.58
2017-10-19T05:27:00.663Z,63.92
2017-10-19T05:28:05.118Z,54.83
2017-10-19T05:29:09.578Z,54.10
2017-10-19T05:30:13.965Z,80.00
2017-10-19T05:31:18.559Z,111.70
2017-10-19T05:32:23.338Z,93.57
2017-10-19T05:33:28.814Z,74.85
2017-10-19T05:34:33.332Z,61.03
2017-10-19T05:35:37.770Z,68.55
2017-10-19T05:36:42.149Z,54.38
2017-10-19T05:37:46.640Z,62.70
2017-10-19T05:38:51.097Z,52.05
2017-10-19T05:39:55.634Z,61.17
2017-10-19T05:41:00.891Z,77.43
2017-10-19T05:42:05.436Z,57.60
2017-10-19T05:43:09.971Z,67.25
2017-10-19T05:44:14.465Z,70.50
2017-10-19T05:45:18.921Z,79.45
2017-10-19T05:46:24.209Z,69.75
2017-10-19T05:47:28.759Z,72.87
2017-10-19T05:48:34.110Z,69.25
2017-10-19T05:49:39.321Z,74.32
2017-10-19T05:50:43.869Z,74.87
2017-10-19T05:51:48.760Z,65.57
2017-10-19T05:52:53.985Z,68.93
2017-10-19T05:53:59.155Z,74.00
2017-10-19T05:55:03.534Z,59.55
2017-10-19T05:56:07.919Z,73.55
2017-10-19T05:57:12.586Z,69.65
2017-10-19T05:58:16.962Z,61.67
2017-10-19T05:59:23.054Z,61.25
2017-10-19T06:00:28.267Z,63.55
2017-10-19T06:01:33.977Z,60.60
2017-10-19T06:02:40.736Z,68.78
2017-10-19T06:03:46.879Z,57.35
2017-10-19T06:04:53.254Z,51.03
2017-10-19T06:05:59.445Z,54.65
2017-10-19T06:07:04.664Z,56.55
2017-10-19T06:08:10.889Z,48.78
2017-10-19T06:09:16.923Z,56.37
2017-10-19T06:10:22.412Z,43.08
2017-10-19T06:11:27.705Z,57.25
2017-10-19T06:12:34.370Z,53.58
2017-10-19T06:13:39.758Z,59.90
2017-10-19T06:14:46.453Z,50.95
2017-10-19T06:15:51.294Z,72.57
2017-10-19T06:16:55.845Z,49.53
2017-10-19T06:18:00.433Z,48.53
2017-10-19T06:19:05.905Z,53.15
2017-10-19T06:20:11.609Z,48.00
2017-10-19T06:21:16.058Z,45.72
2017-10-19T06:22:20.568Z,46.42
2017-10-19T06:23:26.163Z,50.60
2017-10-19T06:24:30.780Z,50.75
2017-10-19T06:25:35.250Z,46.75
2017-10-19T06:26:43.687Z,50.25
2017-10-19T06:27:49.867Z,42.85
2017-10-19T06:28:55.000Z,52.45
2017-10-19T06:30:01.629Z,41.58
2017-10-19T06:31:06.961Z,48.97
2017-10-19T06:32:12.382Z,53.38
2017-10-19T06:33:17.475Z,45.22
2017-10-19T06:34:23.424Z,43.47
2017-10-19T06:35:32.876Z,44.17
2017-10-19T06:36:38.197Z,59.10
2017-10-19T06:37:45.516Z,46.25
2017-10-19T06:38:51.417Z,51.60
2017-10-19T06:39:57.568Z,62.45
2017-10-19T06:41:05.256Z,59.35
2017-10-19T06:42:11.866Z,39.88
2017-10-19T06:43:17.090Z,47.10
2017-10-19T06:44:23.533Z,48.45
2017-10-19T06:45:28.876Z,47.28
2017-10-19T06:46:34.519Z,50.97
2017-10-19T06:47:41.190Z,49.70
2017-10-19T06:48:51.200Z,47.85
2017-10-19T06:49:57.672Z,45.22
2017-10-19T06:51:02.792Z,52.20
2017-10-19T06:52:07.369Z,51.03
2017-10-19T06:53:13.087Z,49.03
2017-10-19T06:54:17.556Z,45.03
2017-10-19T06:55:22.095Z,49.60
2017-10-19T06:56:26.834Z,41.53
2017-10-19T06:57:32.255Z,43.47
2017-10-19T06:58:38.146Z,95.55
2017-10-19T06:59:42.822Z,82.75
2017-10-19T07:00:48.143Z,53.17
2017-10-19T07:01:52.665Z,49.17
2017-10-19T07:02:57.329Z,42.10
2017-10-19T07:04:01.820Z,42.88
2017-10-19T07:05:06.342Z,41.72
2017-10-19T07:06:11.367Z,40.70
2017-10-19T07:07:17.753Z,34.85
2017-10-19T07:08:23.025Z,47.38
2017-10-19T07:09:29.550Z,45.05
2017-10-19T07:10:34.170Z,46.65
2017-10-19T07:11:39.479Z,40.35
2017-10-19T07:12:44.005Z,40.35
2017-10-19T07:13:48.636Z,48.75
2017-10-19T07:14:53.988Z,54.47
2017-10-19T07:15:59.315Z,50.53
2017-10-19T07:17:04.703Z,48.63
2017-10-19T07:18:09.297Z,48.13
2017-10-19T07:19:13.945Z,48.75
2017-10-19T07:20:18.782Z,46.85
2017-10-19T07:21:24.974Z,44.88
2017-10-19T07:22:29.511Z,42.30
2017-10-19T07:23:35.336Z,38.47
2017-10-19T07:24:40.669Z,45.85
2017-10-19T07:25:45.745Z,44.45
2017-10-19T07:26:50.639Z,46.22
2017-10-19T07:27:56.752Z,56.13
2017-10-19T07:29:01.410Z,43.08
2017-10-19T07:30:06.079Z,48.13
2017-10-19T07:31:10.978Z,46.58
2017-10-19T07:32:17.286Z,51.90
2017-10-19T07:33:22.846Z,45.45
2017-10-19T07:34:27.450Z,57.13
2017-10-19T07:35:33.155Z,46.97
2017-10-19T07:36:38.546Z,42.47
2017-10-19T07:37:43.174Z,72.22
2017-10-19T07:38:48.457Z,56.00
2017-10-19T07:39:53.333Z,52.20
2017-10-19T07:41:02.726Z,43.03
2017-10-19T07:42:07.531Z,47.13
2017-10-19T07:43:12.088Z,47.90
2017-10-19T07:44:17.364Z,46.95
2017-10-19T07:45:22.444Z,52.17
2017-10-19T07:47:14.008Z,46.35
2017-10-19T07:48:18.635Z,52.62
2017-10-19T07:49:23.311Z,68.10
2017-10-19T07:50:27.890Z,70.37
2017-10-19T07:51:33.127Z,53.13
2017-10-19T07:52:38.654Z,54.63
2017-10-19T07:53:44.645Z,44.35
2017-10-19T07:54:49.247Z,43.83
2017-10-19T07:55:53.981Z,49.40
2017-10-19T07:56:58.623Z,43.53
2017-10-19T07:58:03.139Z,73.55
2017-10-19T07:59:08.133Z,40.15
2017-10-19T08:00:13.685Z,39.13
2017-10-19T08:01:18.448Z,40.40
2017-10-19T08:02:24.066Z,51.20
2017-10-19T08:03:29.463Z,55.95
2017-10-19T08:04:34.122Z,36.60
2017-10-19T08:05:39.454Z,49.20
2017-10-19T08:06:44.800Z,36.65
2017-10-19T08:07:50.187Z,45.65
2017-10-19T08:08:54.670Z,47.10
2017-10-19T08:10:00.180Z,40.50
2017-10-19T08:11:04.816Z,35.20
2017-10-19T08:12:09.391Z,35.47
2017-10-19T08:13:14.841Z,42.05
2017-10-19T08:14:20.600Z,41.50
2017-10-19T08:15:25.074Z,44.25
2017-10-19T08:16:30.425Z,45.88
2017-10-19T08:17:35.608Z,36.80
2017-10-19T08:18:40.115Z,43.50
2017-10-19T08:19:44.625Z,45.20
2017-10-19T08:20:49.073Z,36.00
2017-10-19T08:21:54.334Z,40.47
2017-10-19T08:22:58.863Z,38.40
2017-10-19T08:24:04.334Z,44.03
2017-10-19T08:25:08.879Z,33.92
2017-10-19T08:26:13.744Z,36.22
2017-10-19T08:27:18.296Z,36.97
2017-10-19T08:28:24.035Z,36.53
2017-10-19T08:29:35.222Z,42.45
2017-10-19T08:30:39.850Z,39.38
2017-10-19T08:31:44.448Z,33.78
2017-10-19T08:32:49.047Z,32.00
2017-10-19T08:33:54.562Z,30.92
2017-10-19T08:34:59.444Z,46.33
2017-10-19T08:36:04.167Z,33.35
2017-10-19T08:37:09.111Z,36.50
2017-10-19T08:38:14.042Z,32.78
2017-10-19T08:39:18.723Z,40.25
2017-10-19T08:40:23.317Z,34.03
2017-10-19T08:41:27.990Z,32.58
2017-10-19T08:42:33.068Z,31.40
2017-10-19T08:43:38.507Z,28.23
2017-10-19T08:44:43.200Z,29.52
2017-10-19T08:45:48.452Z,35.47
2017-10-19T08:46:52.985Z,36.47
2017-10-19T08:47:57.852Z,36.40
2017-10-19T08:49:03.328Z,31.52
2017-10-19T08:50:07.966Z,31.75
2017-10-19T08:51:12.487Z,32.72
2017-10-19T08:52:17.180Z,32.13
2017-10-19T08:53:22.195Z,34.35
2017-10-19T08:54:26.716Z,31.60
2017-10-19T08:55:32.464Z,31.48
2017-10-19T08:56:37.886Z,31.45
2017-10-19T08:57:42.431Z,25.23
2017-10-19T08:58:47.435Z,29.08
2017-10-19T08:59:52.456Z,34.20
2017-10-19T09:00:57.956Z,29.40
2017-10-19T09:02:03.365Z,28.85
2017-10-19T09:03:11.401Z,33.40
2017-10-19T09:04:17.329Z,27.05
2017-10-19T09:05:23.407Z,29.73
2017-10-19T09:06:31.304Z,33.38
2017-10-19T09:07:35.761Z,29.50
2017-10-19T09:08:42.262Z,26.30
2017-10-19T09:09:48.457Z,31.55
2017-10-19T09:10:54.155Z,30.00
2017-10-19T09:11:58.750Z,28.45
2017-10-19T09:13:04.110Z,25.60
2017-10-19T09:14:12.016Z,25.37
2017-10-19T09:15:16.661Z,25.95
2017-10-19T09:16:21.920Z,30.98
2017-10-19T09:17:26.563Z,31.58
2017-10-19T09:18:31.220Z,44.83
2017-10-19T09:19:35.874Z,26.85
2017-10-19T09:20:41.898Z,27.55
2017-10-19T09:21:47.118Z,25.12
2017-10-19T09:22:51.615Z,27.05
2017-10-19T09:23:57.068Z,29.00
2017-10-19T09:25:01.660Z,26.92
2017-10-19T09:26:07.477Z,27.45
2017-10-19T09:27:12.031Z,31.62
2017-10-19T09:28:17.381Z,28.52
2017-10-19T09:29:21.870Z,29.10
2017-10-19T09:30:27.195Z,26.08
2017-10-19T09:31:32.434Z,30.45
2017-10-19T09:32:37.678Z,23.17
2017-10-19T09:33:42.105Z,26.12
2017-10-19T09:34:46.677Z,25.55
2017-10-19T09:35:51.962Z,22.25
2017-10-19T09:36:56.651Z,22.15
2017-10-19T09:38:01.501Z,24.85
2017-10-19T09:39:06.220Z,27.58
2017-10-19T09:40:10.798Z,23.05
2017-10-19T09:41:15.406Z,22.20
2017-10-19T09:42:19.959Z,27.42
2017-10-19T09:43:24.392Z,27.67
2017-10-19T09:44:28.913Z,26.87
2017-10-19T09:45:33.511Z,22.33
2017-10-19T09:46:38.107Z,25.88
2017-10-19T09:47:42.642Z,26.73
2017-10-19T09:48:47.274Z,29.77
2017-10-19T09:49:52.561Z,21.83
2017-10-19T09:50:57.112Z,25.27
2017-10-19T09:52:02.417Z,24.17
2017-10-19T09:53:06.938Z,22.75
2017-10-19T09:54:11.424Z,22.75
2017-10-19T09:55:16.331Z,30.33
2017-10-19T09:56:20.821Z,23.12
2017-10-19T09:57:25.382Z,21.20
2017-10-19T09:58:29.934Z,24.10
2017-10-19T09:59:35.587Z,29.48
2017-10-19T10:00:40.087Z,22.37
2017-10-19T10:01:45.471Z,23.15
2017-10-19T10:02:49.899Z,24.35
2017-10-19T10:03:54.346Z,19.83
2017-10-19T10:04:59.924Z,19.98
2017-10-19T10:06:04.486Z,22.80
2017-10-19T10:07:09.989Z,17.00
2017-10-19T10:08:14.462Z,16.58
2017-10-19T10:09:18.925Z,14.30
2017-10-19T10:10:23.550Z,22.17
2017-10-19T10:11:29.157Z,21.55
2017-10-19T10:12:34.170Z,23.17
2017-10-19T10:13:39.896Z,21.30
2017-10-19T10:14:44.433Z,18.45
2017-10-19T10:15:49.022Z,21.45
2017-10-19T10:16:55.638Z,23.40
2017-10-19T10:18:01.012Z,21.95
2017-10-19T10:19:06.165Z,17.25
2017-10-19T10:20:12.786Z,18.42
2017-10-19T10:21:19.039Z,13.95
2017-10-19T10:22:24.955Z,16.48
2017-10-19T10:23:30.840Z,27.65
2017-10-19T10:24:35.534Z,26.70
2017-10-19T10:25:40.972Z,40.42
2017-10-19T10:26:45.525Z,67.95
2017-10-19T10:27:50.081Z,56.65
2017-10-19T10:28:55.397Z,35.00
2017-10-19T10:29:59.926Z,59.55
2017-10-19T10:31:05.219Z,47.67
2017-10-19T10:32:10.046Z,32.63
2017-10-19T10:33:14.588Z,23.08
2017-10-19T10:34:20.396Z,32.35
2017-10-19T10:35:24.908Z,20.10
2017-10-19T10:36:29.544Z,15.32
2017-10-19T10:37:34.128Z,25.00
2017-10-19T10:38:38.797Z,12.90
2017-10-19T10:39:43.772Z,60.12
2017-10-19T10:40:48.374Z,23.98
2017-10-19T10:41:53.093Z,46.78
2017-10-19T10:42:57.649Z,55.42
2017-10-19T10:44:03.816Z,34.80
2017-10-19T10:45:08.478Z,24.12
2017-10-19T10:46:12.942Z,25.10
2017-10-19T10:47:18.264Z,15.48
2017-10-19T10:48:23.520Z,17.27
2017-10-19T10:49:28.101Z,49.55
2017-10-19T10:50:33.740Z,23.80
2017-10-19T10:51:39.010Z,18.80
2017-10-19T10:52:43.563Z,34.83
2017-10-19T10:53:48.910Z,28.52
2017-10-19T10:54:54.203Z,40.92
2017-10-19T10:55:59.354Z,23.45
2017-10-19T10:57:04.819Z,27.05
2017-10-19T10:58:10.051Z,15.95
2017-10-19T10:59:14.605Z,15.43
2017-10-19T11:00:19.214Z,31.77
2017-10-19T11:01:25.369Z,33.67
2017-10-19T11:02:30.000Z,22.33
2017-10-19T11:03:34.549Z,30.33
2017-10-19T11:04:39.891Z,19.85
2017-10-19T11:05:44.579Z,13.45
2017-10-19T11:06:49.564Z,16.00
2017-10-19T11:07:54.153Z,25.23
2017-10-19T11:08:58.743Z,34.22
2017-10-19T11:10:04.094Z,27.73
2017-10-19T11:11:08.630Z,34.03
2017-10-19T11:12:13.161Z,21.08
2017-10-19T11:13:17.715Z,33.33
2017-10-19T11:14:22.182Z,24.87
2017-10-19T11:15:26.690Z,29.50
2017-10-19T11:16:31.287Z,26.75
2017-10-19T11:17:35.844Z,20.60
2017-10-19T11:18:40.940Z,23.62
2017-10-19T11:19:45.458Z,18.62
2017-10-19T11:20:49.913Z,13.77
2017-10-19T11:21:54.406Z,14.77
2017-10-19T11:22:59.730Z,22.17
2017-10-19T11:24:04.645Z,15.93
2017-10-19T11:25:09.158Z,19.37
2017-10-19T11:26:13.649Z,22.02
2017-10-19T11:27:18.257Z,20.02
2017-10-19T11:28:22.750Z,19.67
2017-10-19T11:29:27.505Z,13.98
2017-10-19T11:30:32.079Z,15.05
2017-10-19T11:31:36.613Z,12.93
2017-10-19T11:32:41.391Z,17.92
2017-10-19T11:33:46.919Z,12.73
2017-10-19T11:34:51.539Z,16.15
2017-10-19T11:35:56.318Z,17.73
2017-10-19T11:37:00.924Z,14.87
2017-10-19T11:38:05.509Z,12.65
2017-10-19T11:39:10.152Z,13.07
2017-10-19T11:40:14.662Z,19.50
2017-10-19T11:41:19.639Z,15.45
2017-10-19T11:42:25.048Z,16.17
2017-10-19T11:43:30.486Z,20.48
2017-10-19T11:44:35.001Z,26.30
2017-10-19T11:45:40.266Z,15.25
2017-10-19T11:46:44.773Z,20.35
2017-10-19T11:47:49.429Z,22.48
2017-10-19T11:48:53.869Z,22.80
2017-10-19T11:49:59.273Z,24.73
2017-10-19T11:51:03.800Z,20.33
2017-10-19T11:52:09.546Z,16.42
2017-10-19T11:53:14.901Z,18.67
2017-10-19T11:54:20.205Z,12.52
2017-10-19T11:55:24.776Z,17.42
2017-10-19T11:56:29.422Z,15.73
2017-10-19T11:57:35.048Z,13.90
2017-10-19T11:58:40.150Z,21.37
2017-10-19T11:59:44.684Z,11.40
2017-10-19T12:00:49.378Z,21.17
2017-10-19T12:01:54.076Z,15.32
2017-10-19T12:02:58.659Z,16.58
2017-10-19T12:04:03.169Z,12.15
2017-10-19T12:05:07.711Z,15.82
2017-10-19T12:06:42.664Z,18.50
2017-10-19T12:07:47.281Z,13.05
2017-10-19T12:08:51.867Z,19.48
2017-10-19T12:09:56.484Z,25.40
2017-10-19T12:11:01.098Z,18.40
2017-10-19T12:12:05.659Z,23.70
2017-10-19T12:13:10.322Z,16.00
2017-10-19T12:14:14.886Z,15.27
2017-10-19T12:15:19.692Z,18.58
2017-10-19T12:16:24.195Z,17.83
2017-10-19T12:17:28.709Z,17.17
2017-10-19T12:18:33.237Z,17.12
2017-10-19T12:19:37.791Z,18.70
2017-10-19T12:20:43.501Z,21.55
2017-10-19T12:21:48.167Z,19.98
2017-10-19T12:22:52.640Z,14.25
2017-10-19T12:23:57.252Z,13.13
2017-10-19T12:25:01.830Z,17.05
2017-10-19T12:26:26.838Z,13.00
2017-10-19T12:27:32.465Z,15.75
2017-10-19T12:28:37.172Z,15.77
2017-10-19T12:29:42.476Z,17.92
2017-10-19T12:30:47.350Z,11.48
2017-10-19T12:31:52.505Z,27.45
2017-10-19T12:32:58.085Z,17.45
2017-10-19T12:34:02.756Z,13.48
2017-10-19T12:35:08.100Z,20.40
2017-10-19T12:36:12.766Z,12.55
2017-10-19T12:37:21.899Z,13.98
2017-10-19T12:38:26.553Z,27.83
2017-10-19T12:39:32.061Z,17.17
2017-10-19T12:40:36.711Z,14.98
2017-10-19T12:41:41.367Z,12.98
2017-10-19T12:42:46.105Z,16.92
2017-10-19T12:43:52.322Z,13.20
2017-10-19T12:44:56.912Z,13.13
2017-10-19T12:46:01.574Z,12.13
2017-10-19T12:47:06.318Z,14.82
2017-10-19T12:48:11.685Z,12.18
2017-10-19T12:49:16.235Z,11.40
2017-10-19T12:50:20.894Z,10.98
2017-10-19T12:51:26.186Z,21.83
2017-10-19T12:52:31.368Z,16.25
2017-10-19T12:53:35.990Z,33.95
2017-10-19T12:54:41.018Z,21.08
2017-10-19T12:55:46.349Z,37.55
2017-10-19T12:56:50.955Z,23.60
2017-10-19T12:57:55.463Z,15.80
2017-10-19T12:59:00.071Z,25.75
2017-10-19T13:00:05.000Z,36.72
2017-10-19T13:01:09.589Z,62.65
2017-10-19T13:02:14.164Z,28.83
2017-10-19T13:03:18.665Z,34.22
2017-10-19T13:04:23.242Z,14.02
2017-10-19T13:05:27.802Z,24.40
2017-10-19T13:06:32.409Z,28.55
2017-10-19T13:07:37.065Z,19.27
2017-10-19T13:08:41.697Z,63.03
2017-10-19T13:09:46.166Z,67.78
2017-10-19T13:10:51.106Z,74.95
2017-10-19T13:11:56.412Z,37.17
2017-10-19T13:13:00.957Z,41.50
2017-10-19T13:14:06.976Z,43.10
2017-10-19T13:15:12.051Z,43.30
2017-10-19T13:16:17.169Z,26.55
2017-10-19T13:17:21.988Z,38.10
2017-10-19T13:18:26.546Z,28.38
2017-10-19T13:19:31.302Z,22.67
2017-10-19T13:20:36.804Z,29.45
2017-10-19T13:21:41.401Z,21.52
2017-10-19T13:22:46.072Z,22.20
2017-10-19T13:23:50.702Z,21.20
2017-10-19T13:24:55.351Z,18.87
2017-10-19T13:25:59.929Z,30.33
2017-10-19T13:27:04.692Z,25.50
2017-10-19T13:28:09.173Z,29.23
2017-10-19T13:29:13.848Z,28.00
2017-10-19T13:30:19.099Z,18.60
2017-10-19T13:31:23.900Z,23.48
2017-10-19T13:32:29.329Z,22.67
2017-10-19T13:33:37.196Z,42.53
2017-10-19T13:34:41.741Z,105.87
2017-10-19T13:35:47.019Z,54.60
2017-10-19T13:36:51.618Z,24.58
2017-10-19T13:37:56.300Z,30.67
2017-10-19T13:39:00.824Z,78.62
2017-10-19T13:40:06.261Z,86.85
2017-10-19T13:41:11.468Z,154.85
2017-10-19T13:42:16.827Z,169.82
2017-10-19T13:43:21.650Z,150.45
2017-10-19T13:44:27.325Z,144.27
2017-10-19T13:45:32.734Z,103.35
2017-10-19T13:46:38.368Z,166.00
2017-10-19T13:47:42.859Z,171.60
2017-10-19T13:48:48.456Z,130.80
2017-10-19T13:49:53.007Z,110.75
2017-10-19T13:50:58.368Z,66.82
2017-10-19T13:52:02.874Z,105.93
2017-10-19T13:53:07.414Z,108.12
2017-10-19T13:54:12.122Z,100.05
2017-10-19T13:55:16.770Z,133.80
2017-10-19T13:56:21.907Z,45.60
2017-10-19T13:57:26.594Z,85.47
2017-10-19T13:58:31.099Z,74.57
2017-10-19T13:59:36.587Z,32.45